createdAt,value
2022-10-10T00:00:43.239Z,7.40
2022-10-10T00:01:43.273Z,7.38
2022-10-10T00:02:43.220Z,7.36
2022-10-10T00:03:43.188Z,7.36
2022-10-10T00:04:43.200Z,7.36
2022-10-10T00:05:43.772Z,7.33
2022-10-10T00:06:43.178Z,7.36
2022-10-10T00:07:43.150Z,7.35
2022-10-10T00:08:43.146Z,7.35
2022-10-10T00:09:43.127Z,7.36
2022-10-10T00:10:43.118Z,7.33
2022-10-10T00:11:43.167Z,7.32
2022-10-10T00:12:43.111Z,7.33
2022-10-10T00:13:43.078Z,7.33
2022-10-10T00:14:43.119Z,7.33
2022-10-10T00:15:48.009Z,7.32
2022-10-10T00:16:44.086Z,7.35
2022-10-10T00:17:43.144Z,7.33
2022-10-10T00:18:43.032Z,7.33
2022-10-10T00:19:43.010Z,7.33
2022-10-10T00:20:43.011Z,7.33
2022-10-10T00:21:42.990Z,7.33
2022-10-10T00:22:42.991Z,7.33
2022-10-10T00:23:42.980Z,7.35
2022-10-10T00:24:43.090Z,7.33
2022-10-10T00:25:42.981Z,7.32
2022-10-10T00:26:43.158Z,7.32
2022-10-10T00:27:42.914Z,7.31
2022-10-10T00:28:43.022Z,7.31
2022-10-10T00:29:42.936Z,7.32
2022-10-10T00:30:42.899Z,7.32
2022-10-10T00:31:42.879Z,7.33
2022-10-10T00:32:42.896Z,7.33
2022-10-10T00:33:42.855Z,7.33
2022-10-10T00:34:42.870Z,7.33
2022-10-10T00:35:42.826Z,7.32
2022-10-10T00:36:42.831Z,7.31
2022-10-10T00:37:42.799Z,7.29
2022-10-10T00:38:42.818Z,7.32
2022-10-10T00:39:42.787Z,7.31
2022-10-10T00:40:42.791Z,7.31
2022-10-10T00:41:42.803Z,7.31
2022-10-10T00:42:42.759Z,7.29
2022-10-10T00:43:42.773Z,7.29
2022-10-10T00:44:42.762Z,7.28
2022-10-10T00:45:42.813Z,7.29
2022-10-10T00:46:42.712Z,7.29
2022-10-10T00:47:42.695Z,7.25
2022-10-10T00:48:42.711Z,7.24
2022-10-10T00:49:42.699Z,7.24
2022-10-10T00:50:42.671Z,7.25
2022-10-10T00:51:42.659Z,7.24
2022-10-10T00:52:42.672Z,7.21
2022-10-10T00:53:42.659Z,7.23
2022-10-10T00:54:42.671Z,7.20
2022-10-10T00:55:42.601Z,7.18
2022-10-10T00:56:42.599Z,7.17
2022-10-10T00:57:42.604Z,7.15
2022-10-10T00:58:42.586Z,7.14
2022-10-10T00:59:42.575Z,7.14
2022-10-10T01:00:42.627Z,7.13
2022-10-10T01:01:42.531Z,7.13
2022-10-10T01:02:42.531Z,7.10
2022-10-10T01:03:42.519Z,7.11
2022-10-10T01:04:45.437Z,7.11
2022-10-10T01:05:42.491Z,7.10
2022-10-10T01:06:42.495Z,7.10
2022-10-10T01:07:42.472Z,7.07
2022-10-10T01:08:42.474Z,7.10
2022-10-10T01:09:42.453Z,7.10
2022-10-10T01:10:42.459Z,7.07
2022-10-10T01:11:42.419Z,7.07
2022-10-10T01:12:42.419Z,7.06
2022-10-10T01:13:42.411Z,7.06
2022-10-10T01:14:42.399Z,7.06
2022-10-10T01:15:42.379Z,7.05
2022-10-10T01:16:42.397Z,7.05
2022-10-10T01:17:42.368Z,7.03
2022-10-10T01:18:42.380Z,7.03
2022-10-10T01:19:42.361Z,7.02
2022-10-10T01:20:42.367Z,7.00
2022-10-10T01:21:42.403Z,7.02
2022-10-10T01:22:42.388Z,7.00
2022-10-10T01:23:42.411Z,6.99
2022-10-10T01:24:42.439Z,6.99
2022-10-10T01:25:42.296Z,6.99
2022-10-10T01:26:42.329Z,6.97
2022-10-10T01:27:42.271Z,6.96
2022-10-10T01:28:42.495Z,6.96
2022-10-10T01:29:42.284Z,6.96
2022-10-10T01:30:42.252Z,6.93
2022-10-10T01:31:42.215Z,6.95
2022-10-10T01:32:42.199Z,6.89
2022-10-10T01:33:42.181Z,6.89
2022-10-10T01:34:42.775Z,6.89
2022-10-10T01:35:42.163Z,6.88
2022-10-10T01:36:42.172Z,6.89
2022-10-10T01:37:42.120Z,6.92
2022-10-10T01:38:42.133Z,6.87
2022-10-10T01:39:42.100Z,6.87
2022-10-10T01:40:42.120Z,6.87
2022-10-10T01:41:42.092Z,6.85
2022-10-10T01:42:42.157Z,6.82
2022-10-10T01:43:42.081Z,6.82
2022-10-10T01:44:42.073Z,6.82
2022-10-10T01:45:42.040Z,6.81
2022-10-10T01:46:42.092Z,6.79
2022-10-10T01:47:42.044Z,6.81
2022-10-10T01:48:42.041Z,6.78
2022-10-10T01:49:41.988Z,6.78
2022-10-10T01:50:42.000Z,6.78
2022-10-10T01:51:41.979Z,6.77
2022-10-10T01:52:41.980Z,6.77
2022-10-10T01:53:41.972Z,6.74
2022-10-10T01:54:41.953Z,6.74
2022-10-10T01:55:41.933Z,6.74
2022-10-10T01:56:41.920Z,6.70
2022-10-10T01:57:41.900Z,6.70
2022-10-10T01:58:42.160Z,6.70
2022-10-10T01:59:41.892Z,6.69
2022-10-10T02:00:41.937Z,6.70
2022-10-10T02:01:41.872Z,6.69
2022-10-10T02:02:41.865Z,6.72
2022-10-10T02:03:41.854Z,6.69
2022-10-10T02:04:41.852Z,6.67
2022-10-10T02:05:41.809Z,6.67
2022-10-10T02:06:41.813Z,6.66
2022-10-10T02:07:41.792Z,6.63
2022-10-10T02:08:41.800Z,6.63
2022-10-10T02:09:41.788Z,6.62
2022-10-10T02:10:41.772Z,6.60
2022-10-10T02:11:41.745Z,6.60
2022-10-10T02:12:41.740Z,6.62
2022-10-10T02:13:41.730Z,6.60
2022-10-10T02:14:41.753Z,6.60
2022-10-10T02:15:41.720Z,6.60
2022-10-10T02:16:41.709Z,6.60
2022-10-10T02:17:41.680Z,6.57
2022-10-10T02:18:41.688Z,6.57
2022-10-10T02:19:41.673Z,6.57
2022-10-10T02:20:41.674Z,6.57
2022-10-10T02:21:41.662Z,6.56
2022-10-10T02:22:41.645Z,6.56
2022-10-10T02:23:41.613Z,6.56
2022-10-10T02:24:41.625Z,6.57
2022-10-10T02:25:41.613Z,6.57
2022-10-10T02:26:41.593Z,6.57
2022-10-10T02:27:41.569Z,6.57
2022-10-10T02:28:41.577Z,6.52
2022-10-10T02:29:41.561Z,6.54
2022-10-10T02:30:41.653Z,6.52
2022-10-10T02:31:41.532Z,6.52
2022-10-10T02:32:41.525Z,6.51
2022-10-10T02:33:41.513Z,6.51
2022-10-10T02:34:41.576Z,6.48
2022-10-10T02:35:41.481Z,6.48
2022-10-10T02:36:41.481Z,6.49
2022-10-10T02:37:41.449Z,6.48
2022-10-10T02:38:41.453Z,6.48
2022-10-10T02:39:41.446Z,6.49
2022-10-10T02:40:41.572Z,6.48
2022-10-10T02:41:41.412Z,6.48
2022-10-10T02:42:41.401Z,6.48
2022-10-10T02:43:41.384Z,6.46
2022-10-10T02:44:41.400Z,6.45
2022-10-10T02:45:41.362Z,6.45
2022-10-10T02:46:41.373Z,6.44
2022-10-10T02:47:41.333Z,6.42
2022-10-10T02:48:41.340Z,6.42
2022-10-10T02:49:41.341Z,6.38
2022-10-10T02:50:41.313Z,6.39
2022-10-10T02:51:41.315Z,6.38
2022-10-10T02:52:41.302Z,6.38
2022-10-10T02:53:41.280Z,6.36
2022-10-10T02:54:41.593Z,6.38
2022-10-10T02:55:41.261Z,6.36
2022-10-10T02:56:41.241Z,6.35
2022-10-10T02:57:41.240Z,6.36
2022-10-10T02:58:41.213Z,6.38
2022-10-10T02:59:41.214Z,6.38
2022-10-10T03:00:41.247Z,6.36
2022-10-10T03:01:41.194Z,6.36
2022-10-10T03:02:41.174Z,6.35
2022-10-10T03:03:41.213Z,6.31
2022-10-10T03:04:41.150Z,6.31
2022-10-10T03:05:41.182Z,6.30
2022-10-10T03:06:41.149Z,6.27
2022-10-10T03:07:41.121Z,6.27
2022-10-10T03:08:41.101Z,6.28
2022-10-10T03:09:41.102Z,6.27
2022-10-10T03:10:41.089Z,6.26
2022-10-10T03:11:41.073Z,6.28
2022-10-10T03:12:41.083Z,6.26
2022-10-10T03:13:41.054Z,6.26
2022-10-10T03:14:41.041Z,6.28
2022-10-10T03:15:41.116Z,6.27
2022-10-10T03:16:41.030Z,6.27
2022-10-10T03:17:41.013Z,6.27
2022-10-10T03:18:40.996Z,6.28
2022-10-10T03:19:40.982Z,6.28
2022-10-10T03:20:40.974Z,6.26
2022-10-10T03:21:40.970Z,6.27
2022-10-10T03:22:40.970Z,6.26
2022-10-10T03:23:40.934Z,6.26
2022-10-10T03:24:40.930Z,6.27
2022-10-10T03:25:40.922Z,6.27
2022-10-10T03:26:40.946Z,6.24
2022-10-10T03:27:40.894Z,6.24
2022-10-10T03:28:40.949Z,6.24
2022-10-10T03:29:40.869Z,6.24
2022-10-10T03:30:40.864Z,6.24
2022-10-10T03:31:40.862Z,6.22
2022-10-10T03:32:40.834Z,6.22
2022-10-10T03:33:40.863Z,6.20
2022-10-10T03:34:40.822Z,6.22
2022-10-10T03:35:40.810Z,6.20
2022-10-10T03:36:40.802Z,6.20
2022-10-10T03:37:40.781Z,6.17
2022-10-10T03:38:40.783Z,6.19
2022-10-10T03:39:40.770Z,6.19
2022-10-10T03:40:40.742Z,6.19
2022-10-10T03:41:40.754Z,6.17
2022-10-10T03:42:40.711Z,6.17
2022-10-10T03:43:40.730Z,6.17
2022-10-10T03:44:40.704Z,6.16
2022-10-10T03:45:40.694Z,6.17
2022-10-10T03:46:40.723Z,6.16
2022-10-10T03:47:40.683Z,6.16
2022-10-10T03:48:40.650Z,6.16
2022-10-10T03:49:40.651Z,6.16
2022-10-10T03:50:40.623Z,6.12
2022-10-10T03:51:40.662Z,6.12
2022-10-10T03:52:40.615Z,6.12
2022-10-10T03:53:40.621Z,6.14
2022-10-10T03:54:40.601Z,6.14
2022-10-10T03:55:40.653Z,6.14
2022-10-10T03:56:40.767Z,6.14
2022-10-10T03:57:40.714Z,6.14
2022-10-10T03:58:40.683Z,6.17
2022-10-10T03:59:40.734Z,6.19
2022-10-10T04:00:40.742Z,6.17
2022-10-10T04:01:40.850Z,6.17
2022-10-10T04:02:40.782Z,6.17
2022-10-10T04:03:41.316Z,6.16
2022-10-10T04:04:40.469Z,6.17
2022-10-10T04:05:40.483Z,6.19
2022-10-10T04:06:40.442Z,6.16
2022-10-10T04:07:40.483Z,6.16
2022-10-10T04:08:40.470Z,6.14
2022-10-10T04:09:40.424Z,6.14
2022-10-10T04:10:40.404Z,6.12
2022-10-10T04:11:40.402Z,6.11
2022-10-10T04:12:40.446Z,6.11
2022-10-10T04:13:40.512Z,6.09
2022-10-10T04:14:40.378Z,6.09
2022-10-10T04:15:40.401Z,6.08
2022-10-10T04:16:40.342Z,6.07
2022-10-10T04:17:40.354Z,6.05
2022-10-10T04:18:40.341Z,6.04
2022-10-10T04:19:40.386Z,6.04
2022-10-10T04:20:40.362Z,6.05
2022-10-10T04:21:40.326Z,6.04
2022-10-10T04:22:40.301Z,6.05
2022-10-10T04:23:40.298Z,6.02
2022-10-10T04:24:40.249Z,6.04
2022-10-10T04:25:40.254Z,6.05
2022-10-10T04:26:40.232Z,6.05
2022-10-10T04:27:40.317Z,6.04
2022-10-10T04:28:40.325Z,6.05
2022-10-10T04:29:40.253Z,6.04
2022-10-10T04:30:40.233Z,6.04
2022-10-10T04:31:40.174Z,6.04
2022-10-10T04:32:40.162Z,6.05
2022-10-10T04:33:40.181Z,6.07
2022-10-10T04:34:40.141Z,6.05
2022-10-10T04:35:40.126Z,6.07
2022-10-10T04:36:40.191Z,6.07
2022-10-10T04:37:40.141Z,6.08
2022-10-10T04:38:40.089Z,6.08
2022-10-10T04:39:40.123Z,6.08
2022-10-10T04:40:40.061Z,6.07
2022-10-10T04:41:40.075Z,6.09
2022-10-10T04:42:40.063Z,6.09
2022-10-10T04:43:40.093Z,6.09
2022-10-10T04:44:40.053Z,6.09
2022-10-10T04:45:40.023Z,6.07
2022-10-10T04:46:40.023Z,6.09
2022-10-10T04:47:40.004Z,6.11
2022-10-10T04:48:40.002Z,6.09
2022-10-10T04:49:40.002Z,6.11
2022-10-10T04:50:39.973Z,6.09
2022-10-10T04:51:39.965Z,6.11
2022-10-10T04:52:39.921Z,6.12
2022-10-10T04:53:39.934Z,6.12
2022-10-10T04:54:39.942Z,6.14
2022-10-10T04:55:39.904Z,6.16
2022-10-10T04:56:39.893Z,6.19
2022-10-10T04:57:39.881Z,6.19
2022-10-10T04:58:39.882Z,6.20
2022-10-10T04:59:39.874Z,6.24
2022-10-10T05:00:39.853Z,6.22
2022-10-10T05:01:39.889Z,6.24
2022-10-10T05:02:39.831Z,6.26
2022-10-10T05:03:40.094Z,6.27
2022-10-10T05:04:39.794Z,6.30
2022-10-10T05:05:39.805Z,6.31
2022-10-10T05:06:39.814Z,6.33
2022-10-10T05:07:39.775Z,6.35
2022-10-10T05:08:39.782Z,6.38
2022-10-10T05:09:39.742Z,6.38
2022-10-10T05:10:39.731Z,6.39
2022-10-10T05:11:39.755Z,6.41
2022-10-10T05:12:39.714Z,6.41
2022-10-10T05:13:39.702Z,6.44
2022-10-10T05:14:39.682Z,6.45
2022-10-10T05:15:39.670Z,6.48
2022-10-10T05:16:39.703Z,6.49
2022-10-10T05:17:39.706Z,6.49
2022-10-10T05:18:39.643Z,6.54
2022-10-10T05:19:39.635Z,6.56
2022-10-10T05:20:39.655Z,6.57
2022-10-10T05:21:39.618Z,6.59
2022-10-10T05:22:39.614Z,6.60
2022-10-10T05:23:39.854Z,6.62
2022-10-10T05:24:39.579Z,6.63
2022-10-10T05:25:39.582Z,6.63
2022-10-10T05:26:43.128Z,6.66
2022-10-10T05:27:39.557Z,6.67
2022-10-10T05:28:39.569Z,6.70
2022-10-10T05:29:39.522Z,6.72
2022-10-10T05:30:39.503Z,6.74
2022-10-10T05:31:39.498Z,6.78
2022-10-10T05:32:39.502Z,6.81
2022-10-10T05:33:39.482Z,6.82
2022-10-10T05:34:39.466Z,6.85
2022-10-10T05:35:39.454Z,6.88
2022-10-10T05:36:39.451Z,6.92
2022-10-10T05:37:39.435Z,6.96
2022-10-10T05:38:39.426Z,6.99
2022-10-10T05:39:39.415Z,7.02
2022-10-10T05:40:39.402Z,7.02
2022-10-10T05:41:39.424Z,7.02
2022-10-10T05:42:39.625Z,7.03
2022-10-10T05:43:39.386Z,7.02
2022-10-10T05:44:39.371Z,7.05
2022-10-10T05:45:39.386Z,7.05
2022-10-10T05:46:39.342Z,7.07
2022-10-10T05:47:39.335Z,7.11
2022-10-10T05:48:39.343Z,7.15
2022-10-10T05:49:39.373Z,7.17
2022-10-10T05:50:39.331Z,7.21
2022-10-10T05:51:39.405Z,7.24
2022-10-10T05:52:39.331Z,7.25
2022-10-10T05:53:39.456Z,7.31
2022-10-10T05:54:39.469Z,7.33
2022-10-10T05:55:39.534Z,7.38
2022-10-10T05:56:39.244Z,7.42
2022-10-10T05:57:39.203Z,7.47
2022-10-10T05:58:39.207Z,7.50
2022-10-10T05:59:39.203Z,7.54
2022-10-10T06:00:39.164Z,7.58
2022-10-10T06:01:39.185Z,7.60
2022-10-10T06:02:39.161Z,7.61
2022-10-10T06:03:39.143Z,7.66
2022-10-10T06:04:39.123Z,7.69
2022-10-10T06:05:39.115Z,7.69
2022-10-10T06:06:39.124Z,7.72
2022-10-10T06:08:02.477Z,7.75
2022-10-10T06:08:40.072Z,7.77
2022-10-10T06:09:39.075Z,7.80
2022-10-10T06:10:39.086Z,7.82
2022-10-10T06:11:39.075Z,7.87
2022-10-10T06:12:39.028Z,7.93
2022-10-10T06:13:39.036Z,7.95
2022-10-10T06:14:39.015Z,7.97
2022-10-10T06:15:39.048Z,8.00
2022-10-10T06:16:38.993Z,8.05
2022-10-10T06:17:38.976Z,8.10
2022-10-10T06:18:38.963Z,8.13
2022-10-10T06:19:38.968Z,8.19
2022-10-10T06:20:38.971Z,8.23
2022-10-10T06:21:38.944Z,8.27
2022-10-10T06:22:38.914Z,8.30
2022-10-10T06:23:38.919Z,8.34
2022-10-10T06:24:38.901Z,8.38
2022-10-10T06:25:40.894Z,8.41
2022-10-10T06:26:38.933Z,8.45
2022-10-10T06:27:38.884Z,8.51
2022-10-10T06:28:38.892Z,8.53
2022-10-10T06:29:38.856Z,8.56
2022-10-10T06:30:38.959Z,8.58
2022-10-10T06:31:38.844Z,8.58
2022-10-10T06:32:38.863Z,8.60
2022-10-10T06:33:38.800Z,8.61
2022-10-10T06:34:38.852Z,8.63
2022-10-10T06:35:38.776Z,8.64
2022-10-10T06:36:38.772Z,8.66
2022-10-10T06:37:38.765Z,8.66
2022-10-10T06:38:38.733Z,8.69
2022-10-10T06:39:38.736Z,8.70
2022-10-10T06:40:38.714Z,8.73
2022-10-10T06:41:38.734Z,8.78
2022-10-10T06:42:38.693Z,8.81
2022-10-10T06:43:38.704Z,8.87
2022-10-10T06:44:38.688Z,8.87
2022-10-10T06:45:38.668Z,8.89
2022-10-10T06:46:38.652Z,8.91
2022-10-10T06:47:38.665Z,8.97
2022-10-10T06:48:38.612Z,9.02
2022-10-10T06:49:38.626Z,9.03
2022-10-10T06:50:38.598Z,9.10
2022-10-10T06:51:38.616Z,9.11
2022-10-10T06:52:38.792Z,9.18
2022-10-10T06:53:38.652Z,9.21
2022-10-10T06:54:38.568Z,9.23
2022-10-10T06:55:38.548Z,9.25
2022-10-10T06:56:38.536Z,9.29
2022-10-10T06:57:38.533Z,9.31
2022-10-10T06:58:38.516Z,9.36
2022-10-10T06:59:38.521Z,9.43
2022-10-10T07:00:38.492Z,9.46
2022-10-10T07:01:38.564Z,9.48
2022-10-10T07:02:38.476Z,9.51
2022-10-10T07:03:38.504Z,9.56
2022-10-10T07:04:38.445Z,9.59
2022-10-10T07:05:38.446Z,9.62
2022-10-10T07:06:38.437Z,9.65
2022-10-10T07:07:38.418Z,9.68
2022-10-10T07:08:38.403Z,9.74
2022-10-10T07:09:38.494Z,9.79
2022-10-10T07:10:38.364Z,9.82
2022-10-10T07:11:38.377Z,9.86
2022-10-10T07:12:44.252Z,9.91
2022-10-10T07:13:39.353Z,9.94
2022-10-10T07:14:38.336Z,9.98
2022-10-10T07:15:39.045Z,9.98
2022-10-10T07:16:38.336Z,10.04
2022-10-10T07:17:38.292Z,10.07
2022-10-10T07:18:38.296Z,10.09
2022-10-10T07:19:38.276Z,10.13
2022-10-10T07:20:38.285Z,10.17
2022-10-10T07:21:38.261Z,10.23
2022-10-10T07:22:38.248Z,10.26
2022-10-10T07:23:38.228Z,10.28
2022-10-10T07:24:38.228Z,10.33
2022-10-10T07:25:38.205Z,10.35
2022-10-10T07:26:38.237Z,10.38
2022-10-10T07:27:38.196Z,10.48
2022-10-10T07:28:38.206Z,10.57
2022-10-10T07:29:38.157Z,10.64
2022-10-10T07:30:38.186Z,10.72
2022-10-10T07:31:38.136Z,10.76
2022-10-10T07:32:38.407Z,10.82
2022-10-10T07:33:38.105Z,10.87
2022-10-10T07:34:38.113Z,10.92
2022-10-10T07:35:38.111Z,10.97
2022-10-10T07:36:38.117Z,10.99
2022-10-10T07:37:38.113Z,11.05
2022-10-10T07:38:38.070Z,11.10
2022-10-10T07:39:38.046Z,11.11
2022-10-10T07:40:38.045Z,11.14
2022-10-10T07:41:38.146Z,11.18
2022-10-10T07:42:38.021Z,11.22
2022-10-10T07:43:38.010Z,11.26
2022-10-10T07:44:38.005Z,11.27
2022-10-10T07:45:37.984Z,11.30
2022-10-10T07:46:38.139Z,11.32
2022-10-10T07:47:37.966Z,11.33
2022-10-10T07:48:37.981Z,11.40
2022-10-10T07:49:37.994Z,11.43
2022-10-10T07:50:38.017Z,11.47
2022-10-10T07:51:38.033Z,11.52
2022-10-10T07:52:38.225Z,11.59
2022-10-10T07:53:38.014Z,11.66
2022-10-10T07:54:38.046Z,11.72
2022-10-10T07:55:38.069Z,11.80
2022-10-10T07:56:38.097Z,11.86
2022-10-10T07:57:38.154Z,11.88
2022-10-10T07:58:38.080Z,11.99
2022-10-10T07:59:38.079Z,12.06
2022-10-10T08:00:38.095Z,12.09
2022-10-10T08:01:38.171Z,12.15
2022-10-10T08:02:38.090Z,12.17
2022-10-10T08:03:37.774Z,12.21
2022-10-10T08:04:37.800Z,12.22
2022-10-10T08:05:37.752Z,12.24
2022-10-10T08:06:37.787Z,12.25
2022-10-10T08:07:37.737Z,12.32
2022-10-10T08:08:44.820Z,12.39
2022-10-10T08:09:38.726Z,12.49
2022-10-10T08:10:37.718Z,12.58
2022-10-10T08:11:37.702Z,12.65
2022-10-10T08:12:37.689Z,12.68
2022-10-10T08:13:37.705Z,12.78
2022-10-10T08:14:37.670Z,12.87
2022-10-10T08:15:37.641Z,12.94
2022-10-10T08:16:37.654Z,13.01
2022-10-10T08:17:37.617Z,13.11
2022-10-10T08:18:37.654Z,13.16
2022-10-10T08:19:37.609Z,13.22
2022-10-10T08:20:37.617Z,13.31
2022-10-10T08:21:37.569Z,13.33
2022-10-10T08:22:37.570Z,13.42
2022-10-10T08:23:37.558Z,13.49
2022-10-10T08:24:37.558Z,13.54
2022-10-10T08:25:37.526Z,13.54
2022-10-10T08:26:37.541Z,13.57
2022-10-10T08:27:37.509Z,13.68
2022-10-10T08:28:37.535Z,13.68
2022-10-10T08:29:37.498Z,13.70
2022-10-10T08:30:37.482Z,13.77
2022-10-10T08:31:37.482Z,13.83
2022-10-10T08:32:37.462Z,13.95
2022-10-10T08:33:37.442Z,14.04
2022-10-10T08:34:37.437Z,14.18
2022-10-10T08:35:37.431Z,14.23
2022-10-10T08:36:37.422Z,14.23
2022-10-10T08:37:37.624Z,14.28
2022-10-10T08:38:37.390Z,14.33
2022-10-10T08:39:37.362Z,14.35
2022-10-10T08:40:37.473Z,14.30
2022-10-10T08:41:37.362Z,14.26
2022-10-10T08:42:40.662Z,14.40
2022-10-10T08:43:38.472Z,14.43
2022-10-10T08:44:37.325Z,14.48
2022-10-10T08:45:37.315Z,14.44
2022-10-10T08:46:37.323Z,14.40
2022-10-10T08:47:37.286Z,14.43
2022-10-10T08:48:37.290Z,14.36
2022-10-10T08:49:37.254Z,14.35
2022-10-10T08:50:37.274Z,14.37
2022-10-10T08:51:37.490Z,14.47
2022-10-10T08:52:37.266Z,14.58
2022-10-10T08:53:37.212Z,14.59
2022-10-10T08:54:37.250Z,14.58
2022-10-10T08:55:37.187Z,14.53
2022-10-10T08:56:37.239Z,14.50
2022-10-10T08:57:37.171Z,14.50
2022-10-10T08:58:37.162Z,14.47
2022-10-10T08:59:37.170Z,14.51
2022-10-10T09:00:37.169Z,14.47
2022-10-10T09:02:18.464Z,14.48
2022-10-10T09:02:53.111Z,14.51
2022-10-10T09:03:38.131Z,14.54
2022-10-10T09:04:37.102Z,14.63
2022-10-10T09:05:37.066Z,14.72
2022-10-10T09:06:37.095Z,14.81
2022-10-10T09:07:37.062Z,14.82
2022-10-10T09:08:37.076Z,14.84
2022-10-10T09:09:37.036Z,15.02
2022-10-10T09:10:37.035Z,15.14
2022-10-10T09:11:37.043Z,15.15
2022-10-10T09:12:37.015Z,15.18
2022-10-10T09:13:37.003Z,15.24
2022-10-10T09:14:36.995Z,15.19
2022-10-10T09:15:36.976Z,15.09
2022-10-10T09:16:36.974Z,15.10
2022-10-10T09:17:36.961Z,15.19
2022-10-10T09:18:36.940Z,15.19
2022-10-10T09:19:36.939Z,15.18
2022-10-10T09:20:36.906Z,15.27
2022-10-10T09:21:37.650Z,15.27
2022-10-10T09:22:36.895Z,15.35
2022-10-10T09:23:36.883Z,15.44
2022-10-10T09:24:41.108Z,15.54
2022-10-10T09:25:37.863Z,15.59
2022-10-10T09:26:36.868Z,15.59
2022-10-10T09:27:36.827Z,15.62
2022-10-10T09:28:36.924Z,15.76
2022-10-10T09:29:36.827Z,15.75
2022-10-10T09:30:36.807Z,15.68
2022-10-10T09:31:36.777Z,15.65
2022-10-10T09:32:36.767Z,15.65
2022-10-10T09:33:36.792Z,15.73
2022-10-10T09:34:36.780Z,15.79
2022-10-10T09:35:36.747Z,15.92
2022-10-10T09:36:36.727Z,15.95
2022-10-10T09:37:46.824Z,15.95
2022-10-10T09:38:37.715Z,16.02
2022-10-10T09:39:36.700Z,16.08
2022-10-10T09:40:36.736Z,16.10
2022-10-10T09:41:36.807Z,16.10
2022-10-10T09:42:38.110Z,16.05
2022-10-10T09:43:36.639Z,16.28
2022-10-10T09:44:36.659Z,16.46
2022-10-10T09:45:36.619Z,16.71
2022-10-10T09:46:36.652Z,16.83
2022-10-10T09:47:36.599Z,16.96
2022-10-10T09:48:36.600Z,16.97
2022-10-10T09:49:36.584Z,17.01
2022-10-10T09:50:39.196Z,16.94
2022-10-10T09:51:37.568Z,16.86
2022-10-10T09:52:36.549Z,16.84
2022-10-10T09:53:36.545Z,16.87
2022-10-10T09:54:36.552Z,17.01
2022-10-10T09:55:36.547Z,16.91
2022-10-10T09:56:36.532Z,16.94
2022-10-10T09:57:36.504Z,16.87
2022-10-10T09:58:36.483Z,16.94
2022-10-10T09:59:36.474Z,17.02
2022-10-10T10:00:36.600Z,17.15
2022-10-10T10:01:36.545Z,17.24
2022-10-10T10:02:36.452Z,17.16
2022-10-10T10:03:36.420Z,17.08
2022-10-10T10:04:36.423Z,16.99
2022-10-10T10:05:36.420Z,16.99
2022-10-10T10:06:36.493Z,17.01
2022-10-10T10:07:37.127Z,16.97
2022-10-10T10:08:36.365Z,17.01
2022-10-10T10:09:36.385Z,17.01
2022-10-10T10:10:36.424Z,17.02
2022-10-10T10:11:36.435Z,16.94
2022-10-10T10:12:36.392Z,16.91
2022-10-10T10:13:36.392Z,16.87
2022-10-10T10:14:36.414Z,16.81
2022-10-10T10:15:36.471Z,16.79
2022-10-10T10:16:36.531Z,16.84
2022-10-10T10:17:36.392Z,16.91
2022-10-10T10:18:36.476Z,16.94
2022-10-10T10:19:36.457Z,16.96
2022-10-10T10:20:36.325Z,16.94
2022-10-10T10:21:36.672Z,16.94
2022-10-10T10:22:36.556Z,16.96
2022-10-10T10:23:36.502Z,17.02
2022-10-10T10:24:36.505Z,17.02
2022-10-10T10:25:36.492Z,16.96
2022-10-10T10:26:36.892Z,16.93
2022-10-10T10:27:36.952Z,16.93
2022-10-10T10:28:36.546Z,16.96
2022-10-10T10:29:36.477Z,16.94
2022-10-10T10:30:36.636Z,16.96
2022-10-10T10:31:36.524Z,16.99
2022-10-10T10:32:36.606Z,17.02
2022-10-10T10:33:36.104Z,17.08
2022-10-10T10:34:36.096Z,17.16
2022-10-10T10:35:36.068Z,17.23
2022-10-10T10:36:36.068Z,17.27
2022-10-10T10:37:36.044Z,17.29
2022-10-10T10:38:36.072Z,17.30
2022-10-10T10:39:36.004Z,17.36
2022-10-10T10:40:36.029Z,17.41
2022-10-10T10:41:36.004Z,17.42
2022-10-10T10:42:35.996Z,17.44
2022-10-10T10:43:35.976Z,17.45
2022-10-10T10:44:35.960Z,17.39
2022-10-10T10:45:35.956Z,17.41
2022-10-10T10:46:35.957Z,17.44
2022-10-10T10:48:35.921Z,17.51
2022-10-10T10:49:35.905Z,17.57
2022-10-10T10:50:35.898Z,17.64
2022-10-10T10:51:35.888Z,17.72
2022-10-10T10:52:35.876Z,17.74
2022-10-10T10:53:35.893Z,17.78
2022-10-10T10:54:40.209Z,17.78
2022-10-10T10:55:39.119Z,17.80
2022-10-10T10:56:35.834Z,17.85
2022-10-10T10:57:49.121Z,17.90
2022-10-10T10:59:09.823Z,17.98
2022-10-10T11:00:17.014Z,18.03
2022-10-10T11:01:56.595Z,18.01
2022-10-10T11:02:56.040Z,18.03
2022-10-10T11:05:18.050Z,18.00
2022-10-10T11:05:20.028Z,18.01
2022-10-10T11:05:41.281Z,18.05
2022-10-10T11:06:42.079Z,18.08
2022-10-10T11:07:36.921Z,18.11
2022-10-10T11:08:35.733Z,18.08
2022-10-10T11:09:49.703Z,18.11
2022-10-10T11:10:37.055Z,18.11
2022-10-10T11:11:35.657Z,18.08
2022-10-10T11:12:35.654Z,18.00
2022-10-10T11:13:35.637Z,17.95
2022-10-10T11:14:35.705Z,17.95
2022-10-10T11:16:01.261Z,18.01
2022-10-10T11:16:48.085Z,18.01
2022-10-10T11:17:37.563Z,18.04
2022-10-10T11:18:35.587Z,18.11
2022-10-10T11:19:35.570Z,18.16
2022-10-10T11:20:35.585Z,18.20
2022-10-10T11:21:35.625Z,18.28
2022-10-10T11:22:35.597Z,18.31
2022-10-10T11:23:35.634Z,18.37
2022-10-10T11:24:35.656Z,18.35
2022-10-10T11:25:35.614Z,18.40
2022-10-10T11:26:35.638Z,18.47
2022-10-10T11:27:35.634Z,18.44
2022-10-10T11:28:35.756Z,18.44
2022-10-10T11:29:35.576Z,18.45
2022-10-10T11:30:35.670Z,18.50
2022-10-10T11:31:35.706Z,18.52
2022-10-10T11:32:35.757Z,18.53
2022-10-10T11:33:35.616Z,18.55
2022-10-10T11:34:35.411Z,18.59
2022-10-10T11:35:35.423Z,18.66
2022-10-10T11:36:35.642Z,18.74
2022-10-10T11:37:35.638Z,18.77
2022-10-10T11:38:35.357Z,18.83
2022-10-10T11:39:35.338Z,18.81
2022-10-10T11:40:35.366Z,18.78
2022-10-10T11:41:35.338Z,18.75
2022-10-10T11:42:35.298Z,18.65
2022-10-10T11:43:35.317Z,18.56
2022-10-10T11:44:35.297Z,18.49
2022-10-10T11:45:35.299Z,18.43
2022-10-10T11:46:35.250Z,18.44
2022-10-10T11:47:35.271Z,18.47
2022-10-10T11:48:35.270Z,18.52
2022-10-10T11:49:35.257Z,18.53
2022-10-10T11:50:35.938Z,18.58
2022-10-10T11:51:35.209Z,18.66
2022-10-10T11:52:35.252Z,18.73
2022-10-10T11:53:35.181Z,18.77
2022-10-10T11:54:35.174Z,18.78
2022-10-10T11:55:35.186Z,18.83
2022-10-10T11:56:35.142Z,18.86
2022-10-10T11:57:35.181Z,18.84
2022-10-10T11:58:35.122Z,18.77
2022-10-10T11:59:35.110Z,18.73
2022-10-10T12:00:35.112Z,18.71
2022-10-10T12:01:35.094Z,18.77
2022-10-10T12:02:35.082Z,18.83
2022-10-10T12:03:35.083Z,18.86
2022-10-10T12:04:35.055Z,18.93
2022-10-10T12:05:35.053Z,18.99
2022-10-10T12:06:35.022Z,19.00
2022-10-10T12:07:35.033Z,19.07
2022-10-10T12:08:35.047Z,19.15
2022-10-10T12:09:35.003Z,19.14
2022-10-10T12:10:35.173Z,19.16
2022-10-10T12:11:35.002Z,19.18
2022-10-10T12:12:34.986Z,19.21
2022-10-10T12:13:34.975Z,19.18
2022-10-10T12:14:34.943Z,19.08
2022-10-10T12:15:38.619Z,18.99
2022-10-10T12:16:36.091Z,18.95
2022-10-10T12:17:34.966Z,18.96
2022-10-10T12:18:34.990Z,18.95
2022-10-10T12:19:34.986Z,18.93
2022-10-10T12:20:35.077Z,18.98
2022-10-10T12:21:35.066Z,18.96
2022-10-10T12:22:34.886Z,18.90
2022-10-10T12:23:35.126Z,18.84
2022-10-10T12:24:34.862Z,18.81
2022-10-10T12:25:34.843Z,18.74
2022-10-10T12:26:34.814Z,18.66
2022-10-10T12:27:34.827Z,18.70
2022-10-10T12:28:34.879Z,18.77
2022-10-10T12:29:34.814Z,18.75
2022-10-10T12:30:35.569Z,18.80
2022-10-10T12:31:34.775Z,18.84
2022-10-10T12:32:34.747Z,18.90
2022-10-10T12:33:34.766Z,18.90
2022-10-10T12:34:34.766Z,18.96
2022-10-10T12:35:34.712Z,19.02
2022-10-10T12:36:34.758Z,19.04
2022-10-10T12:37:34.700Z,18.95
2022-10-10T12:38:34.699Z,18.90
2022-10-10T12:39:34.678Z,18.89
2022-10-10T12:40:34.647Z,18.93
2022-10-10T12:41:34.791Z,19.00
2022-10-10T12:42:34.635Z,19.11
2022-10-10T12:43:35.091Z,19.19
2022-10-10T12:44:34.619Z,19.30
2022-10-10T12:45:34.636Z,19.36
2022-10-10T12:46:34.598Z,19.41
2022-10-10T12:47:59.793Z,19.44
2022-10-10T12:48:35.567Z,19.40
2022-10-10T12:49:34.875Z,19.41
2022-10-10T12:50:34.594Z,19.34
2022-10-10T12:51:34.530Z,19.31
2022-10-10T12:52:34.535Z,19.31
2022-10-10T12:53:34.540Z,19.36
2022-10-10T12:54:34.492Z,19.21
2022-10-10T12:55:34.511Z,19.18
2022-10-10T12:56:34.470Z,19.18
2022-10-10T12:57:34.471Z,19.19
2022-10-10T12:58:34.699Z,19.19
2022-10-10T12:59:34.474Z,19.22
2022-10-10T13:00:34.442Z,19.29
2022-10-10T13:01:34.468Z,19.27
2022-10-10T13:02:34.403Z,19.26
2022-10-10T13:03:34.417Z,19.22
2022-10-10T13:04:34.375Z,19.26
2022-10-10T13:05:34.391Z,19.30
2022-10-10T13:06:34.356Z,19.29
2022-10-10T13:07:34.371Z,19.30
2022-10-10T13:08:34.363Z,19.31